Bridport, VT

7:58 PM EST on December 24, 2014 (GMT -0500)
KC5CNT near Bridport downtown | Change Station
CLOSE
Current Station
Personal Weather Station
Location: Bridport, VT
Elevation: 276 ft
Nearby Weather Stations
Active Advisory: Areal Flood Watch

Elev 276 ft 43.98 °N, 73.32 °W | Updated 7 minutes ago

Rain
Rain
37.9 °F
Feels Like 38 °F
N
1.7
Wind Variable Wind from WSW

Today
High -- | Low -- °F
--% Chance of Precip.
Yesterday
High -- | Low -- °F
Precip. -- in
7:26 AM 4:19 PM
Waxing Crescent, 12% visible
Pressure 29.57 in
Visibility 0.8 miles
Clouds Mostly Cloudy 200 ft
Mostly Cloudy 1200 ft
Overcast 2500 ft
Windchill 38 °F
Dew Point 38 °F
Humidity 99%
Rainfall 0.54 in
Snow Depth Not available.
UV 0 out of 12
Pollen .10 out of 12
Air Quality Not available.
Flu Activity Not available.
METAR K6B0 250035Z AUTO 00000KT 3/4SM RA BKN002 BKN012 OVC025 03/03 A2957 RMK AO2 P0001 T00300030

More Conditions Fewer Conditions

Pressure 29.57 in
Visibility 0.8 miles
Clouds Mostly Cloudy 200 ft
Mostly Cloudy 1200 ft
Overcast 2500 ft
Windchill 38 °F
Dew Point 38 °F
Humidity 99%
Rainfall 0.54 in
Snow Depth Not available.
UV 0 out of 12
Pollen .10 out of 12
Air Quality Not available.
Flu Activity Not available.
METAR K6B0 250035Z AUTO 00000KT 3/4SM RA BKN002 BKN012 OVC025 03/03 A2957 RMK AO2 P0001 T00300030

More Conditions Fewer Conditions

10-Day Weather Forecast

Almanac

Astronomy

Dec. 24, 2014 Rise Set
Actual Time
Civil Twilight
Nautical Twilight
Astronomical Twilight
Moon
Length of Visible Light
Length of Day
Tomorrow will be .
, % of the Moon is Illuminated

Today's Extremes

State Highs State Lows

Community

WunderPhotos

Upload Photos

1,780,194 photos uploaded!

WunderBlogs® & News

Nearby

Air Quality

  Air Quality AQ Index Pollutant
Not available.

Snow Depth

Station Depth Elevation

Earthquake Activity

City Distance Mag. Time & Date
Minimum magnitude displayed is 2.5.

Coastal Water Temperatures

Place Temperature

Nearby Weather Stations